createdAt,value
2017-09-19T00:00:14.901Z,6.55
2017-09-19T00:02:42.903Z,6.43
2017-09-19T00:05:10.852Z,7.25
2017-09-19T00:07:38.867Z,5.90
2017-09-19T00:10:06.864Z,7.37
2017-09-19T00:12:34.877Z,7.18
2017-09-19T00:15:02.826Z,5.82
2017-09-19T00:17:30.830Z,5.65
2017-09-19T00:19:58.785Z,5.90
2017-09-19T00:22:26.791Z,5.75
2017-09-19T00:24:54.754Z,10.70
2017-09-19T00:27:22.789Z,6.10
2017-09-19T00:29:50.742Z,6.90
2017-09-19T00:32:18.726Z,5.05
2017-09-19T00:34:46.816Z,4.60
2017-09-19T00:37:14.790Z,4.95
2017-09-19T00:39:42.825Z,7.78
2017-09-19T00:42:10.789Z,5.60
2017-09-19T00:44:38.823Z,9.32
2017-09-19T00:47:07.086Z,6.18
2017-09-19T00:49:35.085Z,5.53
2017-09-19T00:52:03.241Z,5.97
2017-09-19T00:54:31.310Z,5.45
2017-09-19T00:56:59.357Z,6.50
2017-09-19T00:59:27.472Z,10.63
2017-09-19T01:01:55.434Z,5.25
2017-09-19T01:04:23.426Z,8.75
2017-09-19T01:06:51.367Z,5.37
2017-09-19T01:09:19.402Z,6.25
2017-09-19T01:11:47.377Z,9.55
2017-09-19T01:14:15.361Z,5.60
2017-09-19T01:16:43.302Z,5.80
2017-09-19T01:19:11.326Z,5.68
2017-09-19T01:21:42.248Z,5.20
2017-09-19T01:24:10.271Z,5.47
2017-09-19T01:26:38.233Z,7.95
2017-09-19T01:29:06.331Z,5.45
2017-09-19T01:31:34.335Z,5.93
2017-09-19T01:34:02.412Z,8.15
2017-09-19T01:36:30.363Z,6.60
2017-09-19T01:38:58.330Z,6.78
2017-09-19T01:41:26.346Z,5.75
2017-09-19T01:43:54.302Z,5.68
2017-09-19T01:46:22.318Z,5.80
2017-09-19T01:48:50.248Z,8.02
2017-09-19T01:51:32.194Z,7.10
2017-09-19T01:54:00.165Z,9.82
2017-09-19T01:56:28.140Z,5.37
2017-09-19T01:58:56.096Z,4.95
2017-09-19T02:01:24.079Z,7.43
2017-09-19T02:03:52.007Z,6.25
2017-09-19T02:06:19.967Z,4.62
2017-09-19T02:08:47.895Z,4.37
2017-09-19T02:11:15.891Z,6.00
2017-09-19T02:13:43.834Z,7.15
2017-09-19T02:16:11.831Z,4.43
2017-09-19T02:18:39.763Z,5.30
2017-09-19T02:21:07.973Z,7.37
2017-09-19T02:23:35.895Z,4.35
2017-09-19T02:26:03.911Z,4.75
2017-09-19T02:28:31.865Z,5.10
2017-09-19T02:30:59.899Z,5.45
2017-09-19T02:33:27.828Z,4.85
2017-09-19T02:35:56.583Z,4.82
2017-09-19T02:38:24.543Z,5.87
2017-09-19T02:40:52.553Z,5.30
2017-09-19T02:43:20.478Z,6.15
2017-09-19T02:45:48.462Z,3.95
2017-09-19T02:48:16.406Z,4.90
2017-09-19T02:50:44.557Z,5.00
2017-09-19T02:53:12.510Z,3.85
2017-09-19T02:55:41.310Z,3.62
2017-09-19T02:58:09.296Z,3.87
2017-09-19T03:00:37.336Z,4.47
2017-09-19T03:03:06.158Z,4.78
2017-09-19T03:05:34.145Z,4.05
2017-09-19T03:08:02.219Z,5.97
2017-09-19T03:10:30.203Z,3.87
2017-09-19T03:12:58.254Z,3.70
2017-09-19T03:15:26.330Z,4.47
2017-09-19T03:17:54.429Z,4.30
2017-09-19T03:20:24.470Z,5.78
2017-09-19T03:22:52.502Z,4.53
2017-09-19T03:25:20.483Z,3.80
2017-09-19T03:27:49.202Z,5.43
2017-09-19T03:30:17.151Z,4.47
2017-09-19T03:32:45.172Z,3.70
2017-09-19T03:35:13.130Z,3.78
2017-09-19T03:37:41.963Z,3.45
2017-09-19T03:40:09.951Z,3.62
2017-09-19T03:42:37.976Z,9.95
2017-09-19T03:45:06.706Z,4.00
2017-09-19T03:47:34.718Z,5.85
2017-09-19T03:50:08.996Z,5.50
2017-09-19T03:52:36.972Z,3.67
2017-09-19T03:55:04.935Z,7.57
2017-09-19T03:57:32.938Z,4.90
2017-09-19T04:00:13.442Z,5.10
2017-09-19T04:02:41.467Z,3.00
2017-09-19T04:05:09.413Z,3.30
2017-09-19T04:07:37.464Z,3.75
2017-09-19T04:10:05.593Z,7.25
2017-09-19T04:12:33.588Z,4.97
2017-09-19T04:15:01.710Z,3.30
2017-09-19T04:17:39.164Z,3.85
2017-09-19T04:20:15.312Z,4.62
2017-09-19T04:22:50.219Z,5.75
2017-09-19T04:25:23.470Z,4.53
2017-09-19T04:28:01.510Z,7.03
2017-09-19T04:30:35.788Z,4.28
2017-09-19T04:33:11.673Z,3.83
2017-09-19T04:35:46.448Z,2.60
2017-09-19T04:38:19.530Z,6.55
2017-09-19T04:40:54.241Z,5.55
2017-09-19T04:43:25.694Z,3.78
2017-09-19T04:45:54.992Z,4.87
2017-09-19T04:48:23.034Z,3.65
2017-09-19T04:50:51.001Z,2.30
2017-09-19T04:53:19.732Z,4.25
2017-09-19T04:55:47.709Z,2.90
2017-09-19T04:58:18.133Z,4.15
2017-09-19T05:00:46.299Z,4.15
2017-09-19T05:03:14.276Z,3.53
2017-09-19T05:05:42.289Z,3.75
2017-09-19T05:08:10.246Z,4.25
2017-09-19T05:10:38.229Z,2.90
2017-09-19T05:13:06.198Z,3.85
2017-09-19T05:15:34.158Z,3.50
2017-09-19T05:18:02.061Z,2.17
2017-09-19T05:20:30.023Z,5.68
2017-09-19T05:22:57.935Z,5.40
2017-09-19T05:25:25.928Z,3.78
2017-09-19T05:27:53.844Z,4.80
2017-09-19T05:30:21.827Z,3.17
2017-09-19T05:32:49.798Z,3.30
2017-09-19T05:35:17.779Z,5.90
2017-09-19T05:37:45.725Z,3.40
2017-09-19T05:40:13.756Z,6.45
2017-09-19T05:42:42.430Z,4.20
2017-09-19T05:45:10.414Z,5.82
2017-09-19T05:47:38.312Z,3.47
2017-09-19T05:50:06.212Z,4.87
2017-09-19T05:52:34.173Z,4.78
2017-09-19T05:55:02.076Z,4.97
2017-09-19T05:57:30.803Z,4.00
2017-09-19T06:00:02.299Z,5.05
2017-09-19T06:02:30.265Z,5.37
2017-09-19T06:04:58.162Z,14.93
2017-09-19T06:07:26.109Z,5.50
2017-09-19T06:09:54.030Z,6.12
2017-09-19T06:12:21.985Z,6.87
2017-09-19T06:14:49.906Z,5.87
2017-09-19T06:17:17.856Z,8.52
2017-09-19T06:19:45.776Z,5.45
2017-09-19T06:22:14.728Z,6.78
2017-09-19T06:24:42.699Z,4.68
2017-09-19T06:27:10.672Z,4.70
2017-09-19T06:29:38.591Z,3.37
2017-09-19T06:32:06.634Z,4.35
2017-09-19T06:34:35.310Z,4.45
2017-09-19T06:37:03.307Z,5.90
2017-09-19T06:39:31.250Z,4.60
2017-09-19T06:41:59.216Z,4.35
2017-09-19T06:44:27.924Z,4.80
2017-09-19T06:46:56.642Z,4.72
2017-09-19T06:49:24.561Z,3.90
2017-09-19T06:51:52.574Z,4.75
2017-09-19T06:54:20.506Z,7.12
2017-09-19T06:56:49.265Z,6.35
2017-09-19T06:59:17.245Z,8.65
2017-09-19T07:01:45.185Z,4.90
2017-09-19T07:04:13.161Z,9.25
2017-09-19T07:06:41.103Z,4.47
2017-09-19T07:09:09.119Z,5.40
2017-09-19T07:11:37.025Z,4.70
2017-09-19T07:14:05.757Z,5.10
2017-09-19T07:16:33.683Z,5.65
2017-09-19T07:19:01.657Z,6.20
2017-09-19T07:21:29.674Z,4.80
2017-09-19T07:23:57.667Z,8.40
2017-09-19T07:26:25.665Z,7.22
2017-09-19T07:28:53.759Z,7.45
2017-09-19T07:31:21.731Z,5.57
2017-09-19T07:33:49.759Z,6.20
2017-09-19T07:36:17.717Z,5.40
2017-09-19T07:38:45.739Z,4.82
2017-09-19T07:41:13.710Z,5.55
2017-09-19T07:43:41.747Z,6.60
2017-09-19T07:46:09.706Z,5.68
2017-09-19T07:48:37.710Z,5.95
2017-09-19T07:51:05.967Z,6.70
2017-09-19T07:53:34.721Z,5.57
2017-09-19T07:56:02.763Z,8.65
2017-09-19T07:58:30.807Z,6.30
2017-09-19T08:00:58.777Z,6.82
2017-09-19T08:03:27.090Z,9.10
2017-09-19T08:05:55.044Z,5.90
2017-09-19T08:08:23.003Z,10.95
2017-09-19T08:10:51.922Z,7.18
2017-09-19T08:13:19.935Z,6.05
2017-09-19T08:15:49.222Z,8.55
2017-09-19T08:18:28.741Z,5.35
2017-09-19T08:20:57.470Z,5.20
2017-09-19T08:23:25.762Z,7.75
2017-09-19T08:25:57.151Z,6.78
2017-09-19T08:28:25.089Z,7.78
2017-09-19T08:30:57.555Z,6.87
2017-09-19T08:33:25.495Z,7.20
2017-09-19T08:35:53.629Z,6.32
2017-09-19T08:38:21.589Z,6.05
2017-09-19T08:40:49.582Z,6.62
2017-09-19T08:43:17.537Z,7.80
2017-09-19T08:45:45.547Z,6.55
2017-09-19T08:48:13.530Z,5.37
2017-09-19T08:50:41.612Z,5.80
2017-09-19T08:53:09.673Z,6.93
2017-09-19T08:55:37.757Z,9.45
2017-09-19T08:58:05.772Z,5.50
2017-09-19T09:00:40.219Z,8.55
2017-09-19T09:03:08.300Z,5.60
2017-09-19T09:05:36.430Z,7.95
2017-09-19T09:08:04.434Z,11.97
2017-09-19T09:10:32.529Z,6.93
2017-09-19T09:13:00.541Z,7.53
2017-09-19T09:15:28.655Z,7.43
2017-09-19T09:17:56.658Z,6.50
2017-09-19T09:20:26.821Z,7.13
2017-09-19T09:22:54.971Z,5.93
2017-09-19T09:25:25.064Z,5.73
2017-09-19T09:27:53.139Z,4.90
2017-09-19T09:30:21.123Z,6.80
2017-09-19T09:32:49.173Z,5.67
2017-09-19T09:35:17.156Z,9.60
2017-09-19T09:37:45.307Z,8.00
2017-09-19T09:40:13.261Z,6.70
2017-09-19T09:42:41.380Z,6.17
2017-09-19T09:45:09.378Z,9.07
2017-09-19T09:47:38.187Z,7.67
2017-09-19T09:50:06.195Z,9.83
2017-09-19T09:52:35.026Z,9.90
2017-09-19T09:55:03.234Z,6.50
2017-09-19T09:57:32.080Z,7.20
2017-09-19T10:00:00.186Z,5.33
2017-09-19T10:02:28.303Z,7.33
2017-09-19T10:04:56.255Z,7.30
2017-09-19T10:07:24.278Z,5.37
2017-09-19T10:09:54.275Z,5.10
2017-09-19T10:12:22.310Z,6.83
2017-09-19T10:14:50.265Z,4.37
2017-09-19T10:17:18.262Z,6.43
2017-09-19T10:19:46.203Z,6.63
2017-09-19T10:22:14.178Z,5.70
2017-09-19T10:24:42.092Z,6.73
2017-09-19T10:27:10.059Z,7.13
2017-09-19T10:29:37.988Z,9.97
2017-09-19T10:32:05.946Z,6.87
2017-09-19T10:34:33.883Z,8.83
2017-09-19T10:37:01.874Z,11.27
2017-09-19T10:39:29.786Z,9.77
2017-09-19T10:41:57.701Z,9.60
2017-09-19T10:44:25.680Z,9.40
2017-09-19T10:46:53.588Z,11.47
2017-09-19T10:49:21.537Z,12.73
2017-09-19T10:51:49.640Z,13.20
2017-09-19T10:54:17.650Z,12.63
2017-09-19T10:56:45.592Z,12.77
2017-09-19T10:59:13.599Z,14.87
2017-09-19T11:01:41.516Z,14.90
2017-09-19T11:04:09.469Z,13.63
2017-09-19T11:06:37.397Z,16.80
2017-09-19T11:09:05.409Z,18.10
2017-09-19T11:11:33.522Z,15.20
2017-09-19T11:14:02.699Z,16.23
2017-09-19T11:16:30.659Z,15.10
2017-09-19T11:18:58.641Z,14.83
2017-09-19T11:21:29.551Z,12.33
2017-09-19T11:23:57.569Z,17.53
2017-09-19T11:26:25.533Z,14.53
2017-09-19T11:28:53.539Z,13.53
2017-09-19T11:31:21.500Z,10.00
2017-09-19T11:33:49.559Z,8.50
2017-09-19T11:36:17.532Z,10.20
2017-09-19T11:38:45.553Z,9.47
2017-09-19T11:41:13.513Z,10.27
2017-09-19T11:43:41.509Z,12.93
2017-09-19T11:46:09.461Z,10.87
2017-09-19T11:48:37.469Z,12.10
2017-09-19T11:51:05.532Z,10.37
2017-09-19T11:53:33.521Z,9.30
2017-09-19T11:56:01.542Z,11.50
2017-09-19T11:58:29.528Z,10.57
2017-09-19T12:00:57.511Z,14.77
2017-09-19T12:03:25.432Z,13.53
2017-09-19T12:05:54.292Z,12.47
2017-09-19T12:08:22.259Z,16.10
2017-09-19T12:10:50.884Z,19.47
2017-09-19T12:13:19.641Z,16.00
2017-09-19T12:15:47.635Z,14.60
2017-09-19T12:18:16.336Z,16.63
2017-09-19T12:20:47.936Z,16.80
2017-09-19T12:23:15.904Z,14.33
2017-09-19T12:25:43.897Z,13.00
2017-09-19T12:28:11.828Z,12.87
2017-09-19T12:30:39.806Z,16.17
2017-09-19T12:33:07.700Z,13.27
2017-09-19T12:35:35.731Z,12.67
2017-09-19T12:38:03.658Z,15.80
2017-09-19T12:40:31.635Z,13.93
2017-09-19T12:42:59.573Z,12.77
2017-09-19T12:45:27.571Z,14.90
2017-09-19T12:47:55.533Z,14.97
2017-09-19T12:50:23.646Z,14.83
2017-09-19T12:52:51.620Z,15.63
2017-09-19T12:55:19.616Z,17.40
2017-09-19T12:57:47.551Z,15.80
2017-09-19T13:00:15.503Z,17.80
2017-09-19T13:02:46.862Z,19.83
2017-09-19T13:05:14.921Z,18.60
2017-09-19T13:07:52.086Z,17.57
2017-09-19T13:10:26.592Z,18.27
2017-09-19T13:13:04.724Z,20.67
2017-09-19T13:15:32.862Z,22.00
2017-09-19T13:31:50.846Z,20.70
2017-09-19T13:34:20.015Z,21.60
2017-09-19T13:36:49.811Z,25.00
2017-09-19T13:39:17.974Z,24.83
2017-09-19T13:41:46.246Z,20.93
2017-09-19T13:44:16.269Z,22.20
2017-09-19T13:46:44.429Z,24.87
2017-09-19T13:49:15.422Z,20.53
2017-09-19T13:51:43.644Z,19.93
2017-09-19T13:54:15.819Z,22.93
2017-09-19T13:56:43.881Z,25.63
2017-09-19T13:59:12.066Z,20.50
2017-09-19T14:01:40.250Z,16.90
2017-09-19T14:04:08.435Z,21.90
2017-09-19T14:06:36.622Z,19.70
2017-09-19T14:09:04.822Z,22.00
2017-09-19T14:11:33.275Z,23.53
2017-09-19T14:14:01.407Z,18.30
2017-09-19T14:19:15.593Z,21.50
2017-09-19T14:21:44.708Z,22.90
2017-09-19T14:24:12.824Z,22.13
2017-09-19T14:26:40.904Z,21.63
2017-09-19T14:29:09.031Z,21.93
2017-09-19T14:31:37.063Z,20.87
2017-09-19T14:34:05.988Z,20.17
2017-09-19T14:36:34.132Z,20.03
2017-09-19T14:39:03.192Z,24.57
2017-09-19T14:41:32.255Z,21.67
2017-09-19T14:44:00.820Z,25.53
2017-09-19T14:46:28.992Z,26.30
2017-09-19T14:48:58.895Z,21.83
2017-09-19T14:51:27.933Z,27.10
2017-09-19T14:53:57.081Z,24.53
2017-09-19T14:56:25.973Z,23.50
2017-09-19T14:58:54.134Z,29.33
2017-09-19T15:01:22.164Z,33.13
2017-09-19T15:03:51.059Z,26.00
2017-09-19T15:06:19.292Z,28.10
2017-09-19T15:08:48.210Z,19.40
2017-09-19T15:11:16.364Z,19.83
2017-09-19T15:13:44.396Z,17.20
2017-09-19T15:16:12.534Z,17.83
2017-09-19T15:18:40.588Z,20.80
2017-09-19T15:21:08.668Z,19.03
2017-09-19T15:23:36.716Z,21.47
2017-09-19T15:26:05.591Z,20.30
2017-09-19T15:28:34.386Z,26.77
2017-09-19T15:31:04.344Z,24.03
2017-09-19T15:33:32.918Z,25.67
2017-09-19T15:36:00.951Z,24.17
2017-09-19T15:38:28.959Z,20.83
2017-09-19T15:40:56.970Z,20.10
2017-09-19T15:43:24.988Z,22.10
2017-09-19T15:45:53.029Z,24.37
2017-09-19T15:48:21.024Z,30.30
2017-09-19T15:50:49.043Z,28.93
2017-09-19T15:53:17.011Z,24.50
2017-09-19T15:55:45.082Z,23.83
2017-09-19T15:58:13.074Z,22.93
2017-09-19T16:00:41.186Z,26.60
2017-09-19T16:03:09.165Z,25.97
2017-09-19T16:05:37.223Z,24.30
2017-09-19T16:08:05.955Z,30.30
2017-09-19T16:10:34.014Z,25.03
2017-09-19T16:13:02.118Z,23.60
2017-09-19T16:15:30.091Z,25.20
2017-09-19T16:17:58.176Z,23.77
2017-09-19T16:20:26.138Z,23.13
2017-09-19T16:22:54.142Z,27.20
2017-09-19T16:25:22.122Z,25.60
2017-09-19T16:27:50.900Z,26.30
2017-09-19T16:30:18.911Z,21.27
2017-09-19T16:32:46.919Z,23.85
2017-09-19T16:35:14.859Z,27.33
2017-09-19T16:37:43.007Z,25.57
2017-09-19T16:40:11.015Z,26.12
2017-09-19T16:42:39.051Z,29.67
2017-09-19T16:45:07.011Z,24.40
2017-09-19T16:49:55.955Z,25.25
2017-09-19T16:52:23.983Z,32.07
2017-09-19T16:54:51.979Z,22.92
2017-09-19T16:57:20.467Z,22.65
2017-09-19T16:59:48.432Z,20.77
2017-09-19T17:02:16.523Z,22.90
2017-09-19T17:04:44.714Z,22.48
2017-09-19T17:07:12.856Z,26.00
2017-09-19T17:09:41.051Z,23.27
2017-09-19T17:12:09.853Z,22.00
2017-09-19T17:14:37.919Z,22.80
2017-09-19T17:17:05.934Z,25.02
2017-09-19T17:19:33.992Z,22.30
2017-09-19T17:22:05.644Z,27.10
2017-09-19T17:24:34.498Z,19.08
2017-09-19T17:27:02.490Z,22.92
2017-09-19T17:29:30.553Z,29.73
2017-09-19T17:31:59.411Z,27.67
2017-09-19T17:34:27.522Z,28.90
2017-09-19T17:36:56.369Z,28.52
2017-09-19T17:39:24.473Z,24.63
2017-09-19T17:41:52.486Z,26.23
2017-09-19T17:44:20.616Z,28.73
2017-09-19T17:46:48.556Z,27.20
2017-09-19T17:49:16.573Z,33.00
2017-09-19T17:51:44.631Z,27.10
2017-09-19T17:54:28.747Z,27.08
2017-09-19T17:56:59.080Z,28.15
2017-09-19T17:59:27.085Z,25.50
2017-09-19T18:01:55.127Z,26.17
2017-09-19T18:04:23.092Z,30.62
2017-09-19T18:06:51.111Z,34.55
2017-09-19T18:09:19.919Z,30.92
2017-09-19T18:11:48.042Z,26.05
2017-09-19T18:14:16.099Z,25.17
2017-09-19T18:16:44.130Z,29.45
2017-09-19T18:19:12.125Z,26.70
2017-09-19T18:21:41.150Z,23.23
2017-09-19T18:24:09.101Z,20.83
2017-09-19T18:26:43.045Z,23.15
2017-09-19T18:29:16.756Z,25.20
2017-09-19T18:31:50.277Z,31.52
2017-09-19T18:34:22.444Z,31.75
2017-09-19T18:36:57.803Z,32.88
2017-09-19T18:39:32.650Z,25.65
2017-09-19T18:42:00.788Z,27.57
2017-09-19T18:44:28.893Z,23.87
2017-09-19T18:46:56.844Z,26.27
2017-09-19T18:49:25.551Z,26.02
2017-09-19T18:51:53.556Z,25.17
2017-09-19T18:54:21.522Z,30.95
2017-09-19T18:56:49.554Z,25.73
2017-09-19T18:59:17.504Z,25.83
2017-09-19T19:01:46.271Z,22.83
2017-09-19T19:04:14.282Z,23.45
2017-09-19T19:06:42.397Z,21.35
2017-09-19T19:09:10.477Z,26.10
2017-09-19T19:11:38.524Z,31.48
2017-09-19T19:14:06.775Z,26.42
2017-09-19T19:16:34.767Z,22.13
2017-09-19T19:19:13.760Z,20.98
2017-09-19T19:21:42.115Z,28.65
2017-09-19T19:24:10.129Z,21.05
2017-09-19T19:26:38.156Z,18.37
2017-09-19T19:29:06.124Z,24.40
2017-09-19T19:31:34.144Z,23.90
2017-09-19T19:34:02.113Z,26.55
2017-09-19T19:36:30.106Z,21.00
2017-09-19T19:38:58.856Z,25.67
2017-09-19T19:41:30.169Z,21.42
2017-09-19T19:44:03.223Z,19.02
2017-09-19T19:46:31.224Z,30.73
2017-09-19T19:48:59.232Z,36.20
2017-09-19T19:51:27.231Z,19.50
2017-09-19T19:53:55.208Z,23.27
2017-09-19T19:56:23.170Z,23.02
2017-09-19T19:58:51.126Z,28.27
2017-09-19T20:01:19.141Z,23.42
2017-09-19T20:03:48.631Z,24.00
2017-09-19T20:06:17.571Z,27.92
2017-09-19T20:08:45.564Z,30.08
2017-09-19T20:11:14.288Z,43.15
2017-09-19T20:13:42.295Z,30.85
2017-09-19T20:16:10.293Z,26.77
2017-09-19T20:18:38.295Z,33.40
2017-09-19T20:21:06.297Z,38.10
2017-09-19T20:23:34.278Z,40.85
2017-09-19T20:26:02.239Z,30.60
2017-09-19T20:28:30.242Z,27.10
2017-09-19T20:30:58.960Z,29.63
2017-09-19T20:33:26.951Z,26.05
2017-09-19T20:35:54.895Z,25.98
2017-09-19T20:38:23.006Z,34.05
2017-09-19T20:40:54.813Z,32.97
2017-09-19T20:43:23.547Z,24.33
2017-09-19T20:45:51.454Z,24.33
2017-09-19T20:48:20.180Z,30.60
2017-09-19T20:50:48.104Z,45.97
2017-09-19T20:53:16.119Z,41.03
2017-09-19T20:55:44.073Z,68.72
2017-09-19T20:58:12.061Z,58.33
2017-09-19T21:00:40.904Z,63.70
2017-09-19T21:03:08.363Z,43.53
2017-09-19T21:05:41.766Z,39.65
2017-09-19T21:08:15.248Z,46.65
2017-09-19T21:10:48.943Z,35.72
2017-09-19T21:13:22.559Z,34.45
2017-09-19T21:15:56.129Z,31.52
2017-09-19T21:18:29.570Z,34.65
2017-09-19T21:20:57.991Z,28.83
2017-09-19T21:23:25.885Z,29.30
2017-09-19T21:25:53.848Z,38.72
2017-09-19T21:28:21.883Z,25.67
2017-09-19T21:30:49.866Z,30.08
2017-09-19T21:33:17.754Z,28.23
2017-09-19T21:35:45.693Z,32.15
2017-09-19T21:38:13.688Z,26.67
2017-09-19T21:40:41.748Z,31.50
2017-09-19T21:43:09.686Z,30.98
2017-09-19T21:45:37.785Z,30.17
2017-09-19T21:48:05.720Z,26.37
2017-09-19T21:50:33.792Z,30.73
2017-09-19T21:53:02.308Z,34.90
2017-09-19T21:55:30.276Z,35.45
2017-09-19T21:57:58.174Z,34.90
2017-09-19T22:00:26.163Z,35.83
2017-09-19T22:02:54.133Z,33.65
2017-09-19T22:05:22.097Z,27.92
2017-09-19T22:07:49.987Z,27.42
2017-09-19T22:10:17.958Z,22.10
2017-09-19T22:12:45.858Z,20.98
2017-09-19T22:15:14.898Z,41.15
2017-09-19T22:17:45.266Z,23.20
2017-09-19T22:20:13.332Z,24.00
2017-09-19T22:22:41.288Z,33.30
2017-09-19T22:25:09.218Z,55.50
2017-09-19T22:27:37.464Z,32.38
2017-09-19T22:30:06.173Z,20.77
2017-09-19T22:32:34.202Z,18.50
2017-09-19T22:35:02.165Z,20.60
2017-09-19T22:37:30.154Z,52.58
2017-09-19T22:39:58.064Z,19.65
2017-09-19T22:42:26.054Z,17.55
2017-09-19T22:44:54.018Z,20.52
2017-09-19T22:47:22.048Z,22.58
2017-09-19T22:49:49.986Z,34.42
2017-09-19T22:52:17.966Z,21.25
2017-09-19T22:54:46.676Z,24.77
2017-09-19T22:57:14.677Z,17.75
2017-09-19T22:59:42.598Z,23.75
2017-09-19T23:02:11.331Z,17.50
2017-09-19T23:04:39.273Z,17.50
2017-09-19T23:07:07.254Z,16.30
2017-09-19T23:09:35.223Z,21.40
2017-09-19T23:12:07.807Z,20.77
2017-09-19T23:14:35.764Z,13.30
2017-09-19T23:17:03.748Z,25.00
2017-09-19T23:19:32.070Z,13.43
2017-09-19T23:22:00.067Z,13.62
2017-09-19T23:24:28.029Z,18.02
2017-09-19T23:26:56.004Z,19.83
2017-09-19T23:29:23.987Z,13.00
2017-09-19T23:31:51.978Z,18.17
2017-09-19T23:34:20.019Z,14.35
2017-09-19T23:36:48.746Z,12.60
2017-09-19T23:39:16.799Z,31.23
2017-09-19T23:41:44.927Z,15.07
2017-09-19T23:44:12.940Z,14.30
2017-09-19T23:46:40.914Z,13.20
2017-09-19T23:49:08.966Z,14.10
2017-09-19T23:51:36.935Z,21.02
2017-09-19T23:54:04.925Z,14.35
2017-09-19T23:56:32.921Z,14.68
2017-09-19T23:59:00.976Z,14.02
